createdAt,value
2017-11-14T00:01:56.925Z,97201
2017-11-14T00:04:24.366Z,97211
2017-11-14T00:06:51.055Z,97220
2017-11-14T00:09:17.740Z,97221
2017-11-14T00:11:44.431Z,97226
2017-11-14T00:14:11.128Z,97223
2017-11-14T00:16:37.799Z,97231
2017-11-14T00:19:04.583Z,97237
2017-11-14T00:21:32.041Z,97246
2017-11-14T00:23:58.670Z,97247
2017-11-14T00:26:25.729Z,97254
2017-11-14T00:28:52.401Z,97258
2017-11-14T00:31:19.809Z,97259
2017-11-14T00:33:47.257Z,97265
2017-11-14T00:36:14.847Z,97279
2017-11-14T00:38:41.547Z,97285
2017-11-14T00:41:08.239Z,97299
2017-11-14T00:43:34.892Z,97302
2017-11-14T00:46:02.309Z,97311
2017-11-14T00:48:29.037Z,97319
2017-11-14T00:50:55.720Z,97315
2017-11-14T00:53:22.415Z,97330
2017-11-14T00:55:49.100Z,97330
2017-11-14T00:58:15.756Z,97336
2017-11-14T01:00:42.459Z,97340
2017-11-14T01:03:09.182Z,97340
2017-11-14T01:05:35.890Z,97348
2017-11-14T01:08:02.610Z,97346
2017-11-14T01:10:29.291Z,97343
2017-11-14T01:12:56.718Z,97347
2017-11-14T01:15:23.377Z,97350
2017-11-14T01:17:50.076Z,97360
2017-11-14T01:20:17.644Z,97360
2017-11-14T01:22:44.312Z,97365
2017-11-14T01:25:10.984Z,97361
2017-11-14T01:27:37.698Z,97364
2017-11-14T01:30:04.378Z,97369
2017-11-14T01:32:31.834Z,97364
2017-11-14T01:34:59.255Z,97367
2017-11-14T01:37:25.931Z,97371
2017-11-14T01:39:53.392Z,97376
2017-11-14T01:42:20.097Z,97381
2017-11-14T01:44:47.634Z,97384
2017-11-14T01:47:14.365Z,97372
2017-11-14T01:49:41.047Z,97382
2017-11-14T01:52:07.713Z,97381
2017-11-14T01:54:34.528Z,97383
2017-11-14T01:57:01.255Z,97376
2017-11-14T01:59:27.932Z,97375
2017-11-14T02:01:54.656Z,97371
2017-11-14T02:04:21.335Z,97369
2017-11-14T02:06:48.065Z,97378
2017-11-14T02:09:14.826Z,97378
2017-11-14T02:11:41.532Z,97375
2017-11-14T02:14:08.230Z,97380
2017-11-14T02:16:35.706Z,97384
2017-11-14T02:19:02.411Z,97393
2017-11-14T02:21:29.165Z,97399
2017-11-14T02:23:55.969Z,97410
2017-11-14T02:26:22.708Z,97432
2017-11-14T02:28:49.467Z,97436
2017-11-14T02:31:16.253Z,97434
2017-11-14T02:33:42.947Z,97434
2017-11-14T02:36:09.777Z,97438
2017-11-14T02:38:36.515Z,97440
2017-11-14T02:41:03.265Z,97434
2017-11-14T02:43:30.058Z,97430
2017-11-14T02:45:56.825Z,97430
2017-11-14T02:48:24.395Z,97439
2017-11-14T02:50:51.885Z,97432
2017-11-14T02:53:18.608Z,97427
2017-11-14T02:55:45.337Z,97426
2017-11-14T02:58:12.800Z,97432
2017-11-14T03:00:40.299Z,97437
2017-11-14T03:03:06.984Z,97439
2017-11-14T03:05:33.671Z,97441
2017-11-14T03:08:01.170Z,97446
2017-11-14T03:10:27.873Z,97451
2017-11-14T03:12:54.622Z,97463
2017-11-14T03:15:21.310Z,97470
2017-11-14T03:17:48.003Z,97473
2017-11-14T03:20:14.740Z,97470
2017-11-14T03:22:42.220Z,97463
2017-11-14T03:25:08.901Z,97470
2017-11-14T03:27:35.584Z,97480
2017-11-14T03:30:03.166Z,97488
2017-11-14T03:32:29.928Z,97483
2017-11-14T03:34:56.634Z,97482
2017-11-14T03:37:24.324Z,97486
2017-11-14T03:39:51.101Z,97491
2017-11-14T03:42:17.816Z,97499
2017-11-14T03:44:44.564Z,97506
2017-11-14T03:47:11.274Z,97508
2017-11-14T03:49:38.723Z,97514
2017-11-14T03:52:06.352Z,97527
2017-11-14T03:54:33.049Z,97532
2017-11-14T03:57:00.479Z,97532
2017-11-14T03:59:27.317Z,97529
2017-11-14T04:01:54.023Z,97532
2017-11-14T04:04:20.708Z,97533
2017-11-14T04:06:47.422Z,97531
2017-11-14T04:09:14.136Z,97539
2017-11-14T04:11:40.790Z,97539
2017-11-14T04:14:07.501Z,97545
2017-11-14T04:16:34.957Z,97545
2017-11-14T04:19:01.638Z,97555
2017-11-14T04:21:28.329Z,97559
2017-11-14T04:23:55.000Z,97560
2017-11-14T04:26:22.419Z,97558
2017-11-14T04:28:49.097Z,97562
2017-11-14T04:31:16.522Z,97569
2017-11-14T04:33:43.180Z,97566
2017-11-14T04:36:09.895Z,97562
2017-11-14T04:38:36.547Z,97567
2017-11-14T04:41:03.214Z,97573
2017-11-14T04:43:29.938Z,97580
2017-11-14T04:45:56.590Z,97578
2017-11-14T04:48:23.300Z,97584
2017-11-14T04:50:50.028Z,97589
2017-11-14T04:53:16.723Z,97593
2017-11-14T04:55:43.373Z,97589
2017-11-14T04:58:10.064Z,97590
2017-11-14T05:00:36.755Z,97592
2017-11-14T05:03:03.426Z,97597
2017-11-14T05:05:30.856Z,97596
2017-11-14T05:07:57.525Z,97609
2017-11-14T05:10:24.215Z,97614
2017-11-14T05:12:50.945Z,97621
2017-11-14T05:15:17.598Z,97625
2017-11-14T05:17:44.250Z,97633
2017-11-14T05:20:10.937Z,97624
2017-11-14T05:22:38.439Z,97633
2017-11-14T05:25:05.138Z,97637
2017-11-14T05:27:32.583Z,97647
2017-11-14T05:29:59.317Z,97646
2017-11-14T05:32:25.989Z,97653
2017-11-14T05:34:53.518Z,97658
2017-11-14T05:37:20.223Z,97654
2017-11-14T05:39:46.868Z,97655
2017-11-14T05:42:13.579Z,97667
2017-11-14T05:44:40.978Z,97672
2017-11-14T05:47:07.656Z,97679
2017-11-14T05:49:34.351Z,97687
2017-11-14T05:52:01.020Z,97690
2017-11-14T05:54:27.708Z,97693
2017-11-14T05:56:55.195Z,97688
2017-11-14T05:59:21.894Z,97700
2017-11-14T06:01:48.581Z,97707
2017-11-14T06:04:15.249Z,97709
2017-11-14T06:06:41.898Z,97710
2017-11-14T06:09:08.558Z,97718
2017-11-14T06:11:35.232Z,97717
2017-11-14T06:14:02.650Z,97721
2017-11-14T06:16:29.305Z,97722
2017-11-14T06:18:55.999Z,97725
2017-11-14T06:21:22.672Z,97736
2017-11-14T06:23:49.351Z,97737
2017-11-14T06:26:16.057Z,97746
2017-11-14T06:28:42.741Z,97751
2017-11-14T06:31:10.183Z,97757
2017-11-14T06:33:36.872Z,97758
2017-11-14T06:36:03.572Z,97771
2017-11-14T06:38:30.243Z,97777
2017-11-14T06:40:56.975Z,97777
2017-11-14T06:43:24.361Z,97784
2017-11-14T06:45:51.039Z,97779
2017-11-14T06:48:18.466Z,97780
2017-11-14T06:50:45.148Z,97788
2017-11-14T06:53:11.811Z,97791
2017-11-14T06:55:38.505Z,97794
2017-11-14T06:58:05.193Z,97809
2017-11-14T07:00:31.871Z,97810
2017-11-14T07:02:58.584Z,97817
2017-11-14T07:05:26.002Z,97822
2017-11-14T07:07:52.686Z,97826
2017-11-14T07:10:19.365Z,97835
2017-11-14T07:12:46.011Z,97838
2017-11-14T07:15:12.683Z,97846
2017-11-14T07:17:39.367Z,97852
2017-11-14T07:20:07.677Z,97863
2017-11-14T07:22:34.354Z,97862
2017-11-14T07:25:01.036Z,97870
2017-11-14T07:27:28.419Z,97865
2017-11-14T07:29:55.059Z,97866
2017-11-14T07:32:21.883Z,97868
2017-11-14T07:34:49.320Z,97870
2017-11-14T07:37:15.975Z,97871
2017-11-14T07:39:42.675Z,97868
2017-11-14T07:42:09.344Z,97865
2017-11-14T07:44:36.011Z,97866
2017-11-14T07:47:03.466Z,97871
2017-11-14T07:49:30.151Z,97868
2017-11-14T07:51:56.823Z,97870
2017-11-14T07:54:23.564Z,97876
2017-11-14T07:56:50.964Z,97876
2017-11-14T07:59:18.369Z,97883
2017-11-14T08:01:45.096Z,97877
2017-11-14T08:04:11.808Z,97880
2017-11-14T08:06:38.504Z,97875
2017-11-14T08:09:05.232Z,97880
2017-11-14T08:11:31.910Z,97885
2017-11-14T08:13:58.575Z,97881
2017-11-14T08:16:25.257Z,97878
2017-11-14T08:18:51.925Z,97882
2017-11-14T08:21:18.652Z,97883
2017-11-14T08:23:46.154Z,97885
2017-11-14T08:26:12.847Z,97891
2017-11-14T08:28:39.499Z,97893
2017-11-14T08:31:06.176Z,97897
2017-11-14T08:33:32.922Z,97893
2017-11-14T08:36:00.022Z,97891
2017-11-14T08:38:26.692Z,97884
2017-11-14T08:40:53.396Z,97886
2017-11-14T08:43:20.795Z,97886
2017-11-14T08:45:47.573Z,97883
2017-11-14T08:48:14.243Z,97879
2017-11-14T08:50:41.671Z,97877
2017-11-14T08:53:08.406Z,97880
2017-11-14T08:55:35.058Z,97883
2017-11-14T08:58:01.730Z,97878
2017-11-14T09:00:29.193Z,97883
2017-11-14T09:02:56.618Z,97891
2017-11-14T09:05:23.324Z,97888
2017-11-14T09:07:50.040Z,97887
2017-11-14T09:10:17.514Z,97883
2017-11-14T09:12:44.237Z,97886
2017-11-14T09:15:11.734Z,97889
2017-11-14T09:17:38.479Z,97887
2017-11-14T09:20:05.219Z,97881
2017-11-14T09:22:31.927Z,97881
2017-11-14T09:24:58.752Z,97892
2017-11-14T09:27:25.508Z,97894
2017-11-14T09:29:52.292Z,97894
2017-11-14T09:32:18.994Z,97891
2017-11-14T09:34:45.771Z,97892
2017-11-14T09:37:13.291Z,97896
2017-11-14T09:39:40.020Z,97898
2017-11-14T09:42:06.801Z,97890
2017-11-14T09:44:33.625Z,97889
2017-11-14T09:47:00.405Z,97896
2017-11-14T09:49:27.903Z,97888
2017-11-14T09:51:54.667Z,97878
2017-11-14T09:54:21.439Z,97882
2017-11-14T09:56:48.231Z,97875
2017-11-14T09:59:15.067Z,97874
2017-11-14T10:01:41.775Z,97877
2017-11-14T10:04:08.540Z,97878
2017-11-14T10:06:36.074Z,97881
2017-11-14T10:09:02.899Z,97880
2017-11-14T10:11:29.728Z,97865
2017-11-14T10:13:56.505Z,97874
2017-11-14T10:16:23.252Z,97873
2017-11-14T10:18:49.971Z,97880
2017-11-14T10:21:16.744Z,97871
2017-11-14T10:23:43.503Z,97868
2017-11-14T10:26:10.243Z,97863
2017-11-14T10:28:37.063Z,97867
2017-11-14T10:31:03.852Z,97860
2017-11-14T10:33:31.352Z,97861
2017-11-14T10:35:58.152Z,97867
2017-11-14T10:38:24.872Z,97872
2017-11-14T10:40:51.638Z,97871
2017-11-14T10:43:19.080Z,97870
2017-11-14T10:45:45.899Z,97872
2017-11-14T10:48:12.637Z,97870
2017-11-14T10:50:39.391Z,97866
2017-11-14T10:53:06.117Z,97870
2017-11-14T10:55:32.863Z,97868
2017-11-14T10:57:59.620Z,97874
2017-11-14T11:13:49.439Z,97878
2017-11-14T11:16:16.236Z,97874
2017-11-14T11:18:42.992Z,97875
2017-11-14T11:21:09.797Z,97871
2017-11-14T11:23:37.980Z,97880
2017-11-14T11:26:05.469Z,97881
2017-11-14T11:28:32.254Z,97879
2017-11-14T11:30:58.989Z,97876
2017-11-14T11:33:25.743Z,97883
2017-11-14T11:35:52.491Z,97877
2017-11-14T11:38:19.267Z,97883
2017-11-14T11:40:46.800Z,97885
2017-11-14T11:43:13.733Z,97880
2017-11-14T11:45:40.622Z,97881
2017-11-14T11:48:08.163Z,97879
2017-11-14T11:50:35.012Z,97878
2017-11-14T11:53:01.715Z,97879
2017-11-14T11:55:28.524Z,97886
2017-11-14T11:57:56.084Z,97886
2017-11-14T12:00:23.637Z,97884
2017-11-14T12:02:50.412Z,97883
2017-11-14T12:05:17.187Z,97875
2017-11-14T12:07:43.900Z,97874
2017-11-14T12:10:11.445Z,97872
2017-11-14T12:12:38.980Z,97869
2017-11-14T12:15:05.741Z,97859
2017-11-14T12:17:32.499Z,97853
2017-11-14T12:20:00.053Z,97861
2017-11-14T12:22:26.825Z,97863
2017-11-14T12:24:53.565Z,97860
2017-11-14T12:27:21.088Z,97855
2017-11-14T12:29:47.800Z,97850
2017-11-14T12:32:14.531Z,97856
2017-11-14T12:34:41.297Z,97852
2017-11-14T12:37:07.998Z,97849
2017-11-14T12:39:34.691Z,97851
2017-11-14T12:42:01.417Z,97847
2017-11-14T12:44:28.128Z,97849
2017-11-14T12:46:54.855Z,97855
2017-11-14T12:49:21.561Z,97852
2017-11-14T12:51:48.260Z,97849
2017-11-14T12:54:15.705Z,97847
2017-11-14T12:56:43.250Z,97850
2017-11-14T12:59:09.951Z,97843
2017-11-14T13:01:36.661Z,97846
2017-11-14T13:04:04.203Z,97845
2017-11-14T13:06:30.877Z,97854
2017-11-14T13:08:57.574Z,97852
2017-11-14T13:11:24.304Z,97849
2017-11-14T13:13:51.017Z,97854
2017-11-14T13:16:17.756Z,97852
2017-11-14T13:18:45.246Z,97855
2017-11-14T13:21:11.951Z,97865
2017-11-14T13:23:39.700Z,97856
2017-11-14T13:26:07.153Z,97859
2017-11-14T13:28:33.877Z,97860
2017-11-14T13:31:00.939Z,97862
2017-11-14T13:33:27.739Z,97869
2017-11-14T13:35:54.525Z,97876
2017-11-14T13:38:22.001Z,97876
2017-11-14T13:40:49.107Z,97878
2017-11-14T13:43:15.774Z,97878
2017-11-14T13:45:42.442Z,97883
2017-11-14T13:48:09.468Z,97889
2017-11-14T13:50:36.451Z,97897
2017-11-14T13:53:03.268Z,97892
2017-11-14T13:55:29.961Z,97892
2017-11-14T13:57:57.412Z,97898
2017-11-14T14:00:24.850Z,97904
2017-11-14T14:02:51.570Z,97899
2017-11-14T14:05:18.307Z,97904
2017-11-14T14:07:45.001Z,97901
2017-11-14T14:10:12.474Z,97906
2017-11-14T14:12:39.903Z,97911
2017-11-14T14:15:06.592Z,97917
2017-11-14T14:17:33.304Z,97925
2017-11-14T14:19:59.973Z,97933
2017-11-14T14:22:27.387Z,97947
2017-11-14T14:24:54.062Z,97948
2017-11-14T14:27:21.606Z,97954
2017-11-14T14:29:48.290Z,97955
2017-11-14T14:32:15.003Z,97960
2017-11-14T14:34:42.403Z,97961
2017-11-14T14:37:09.052Z,97969
2017-11-14T14:39:35.755Z,97975
2017-11-14T14:42:03.262Z,97972
2017-11-14T14:44:29.929Z,97985
2017-11-14T14:46:56.612Z,97992
2017-11-14T14:49:25.041Z,98004
2017-11-14T14:51:51.755Z,98007
2017-11-14T14:54:18.477Z,98011
2017-11-14T14:56:45.882Z,98011
2017-11-14T14:59:12.577Z,98016
2017-11-14T15:01:40.008Z,98019
2017-11-14T15:04:06.709Z,98027
2017-11-14T15:06:33.380Z,98032
2017-11-14T15:09:00.084Z,98031
2017-11-14T15:11:26.745Z,98038
2017-11-14T15:13:53.623Z,98045
2017-11-14T15:16:20.373Z,98046
2017-11-14T15:18:47.077Z,98038
2017-11-14T15:21:13.785Z,98049
2017-11-14T15:23:41.291Z,98051
2017-11-14T15:26:08.031Z,98063
2017-11-14T15:28:34.767Z,98061
2017-11-14T15:31:01.552Z,98060
2017-11-14T15:33:28.301Z,98065
2017-11-14T15:35:54.971Z,98069
2017-11-14T15:38:23.481Z,98072
2017-11-14T15:40:50.165Z,98077
2017-11-14T15:43:16.834Z,98075
2017-11-14T15:45:44.268Z,98084
2017-11-14T15:48:10.941Z,98078
2017-11-14T15:50:38.341Z,98081
2017-11-14T15:53:05.073Z,98088
2017-11-14T15:55:32.677Z,98086
2017-11-14T15:57:59.337Z,98082
2017-11-14T16:00:26.076Z,98082
2017-11-14T16:02:52.741Z,98080
2017-11-14T16:05:20.158Z,98082
2017-11-14T16:07:46.959Z,98080
2017-11-14T16:10:14.408Z,98077
2017-11-14T16:12:42.720Z,98075
2017-11-14T16:15:10.609Z,98078
2017-11-14T16:17:37.381Z,98080
2017-11-14T16:20:04.125Z,98085
2017-11-14T16:22:30.933Z,98082
2017-11-14T16:24:57.628Z,98083
2017-11-14T16:27:25.108Z,98078
2017-11-14T16:29:52.588Z,98084
2017-11-14T16:32:19.351Z,98089
2017-11-14T16:34:46.152Z,98090
2017-11-14T16:37:13.653Z,98097
2017-11-14T16:39:41.333Z,98101
2017-11-14T16:42:08.063Z,98105
2017-11-14T16:44:34.796Z,98108
2017-11-14T16:47:01.498Z,98113
2017-11-14T16:49:29.782Z,98117
2017-11-14T16:51:56.484Z,98118
2017-11-14T16:54:23.209Z,98114
2017-11-14T16:56:50.003Z,98118
2017-11-14T16:59:16.776Z,98119
2017-11-14T17:01:44.223Z,98118
2017-11-14T17:04:10.922Z,98122
2017-11-14T17:06:37.757Z,98120
2017-11-14T17:09:04.918Z,98124
2017-11-14T17:11:31.822Z,98133
2017-11-14T17:13:59.418Z,98133
2017-11-14T17:16:26.242Z,98139
2017-11-14T17:18:52.964Z,98141
2017-11-14T17:21:19.792Z,98147
2017-11-14T17:23:46.499Z,98143
2017-11-14T17:26:13.226Z,98140
2017-11-14T17:28:39.988Z,98137
2017-11-14T17:31:06.772Z,98143
2017-11-14T17:33:33.498Z,98138
2017-11-14T17:36:00.356Z,98137
2017-11-14T17:38:27.044Z,98141
2017-11-14T17:40:54.468Z,98150
2017-11-14T17:43:21.204Z,98151
2017-11-14T17:45:47.886Z,98147
2017-11-14T17:48:15.293Z,98145
2017-11-14T17:50:42.000Z,98150
2017-11-14T17:53:08.748Z,98150
2017-11-14T17:55:35.451Z,98147
2017-11-14T17:58:02.167Z,98143
2017-11-14T18:00:28.861Z,98136
2017-11-14T18:02:55.542Z,98140
2017-11-14T18:05:22.308Z,98139
2017-11-14T18:07:48.988Z,98138
2017-11-14T18:10:16.488Z,98138
2017-11-14T18:12:43.189Z,98140
2017-11-14T18:15:10.635Z,98137
2017-11-14T18:17:37.320Z,98143
2017-11-14T18:20:04.052Z,98149
2017-11-14T18:22:31.477Z,98143
2017-11-14T18:24:58.171Z,98147
2017-11-14T18:27:24.892Z,98150
2017-11-14T18:29:52.343Z,98152
2017-11-14T18:32:19.771Z,98155
2017-11-14T18:34:46.500Z,98158
2017-11-14T18:37:13.183Z,98158
2017-11-14T18:39:40.632Z,98157
2017-11-14T18:42:07.332Z,98162
2017-11-14T18:44:34.053Z,98164
2017-11-14T18:47:01.572Z,98163
2017-11-14T18:49:28.319Z,98162
2017-11-14T18:51:55.037Z,98165
2017-11-14T18:54:21.777Z,98166
2017-11-14T18:56:48.503Z,98167
2017-11-14T18:59:15.206Z,98166
2017-11-14T19:01:41.920Z,98173
2017-11-14T19:04:09.830Z,98178
2017-11-14T19:06:37.231Z,98191
2017-11-14T19:09:04.038Z,98196
2017-11-14T19:11:30.879Z,98192
2017-11-14T19:13:57.535Z,98202
2017-11-14T19:16:25.028Z,98205
2017-11-14T19:18:51.735Z,98207
2017-11-14T19:21:18.443Z,98206
2017-11-14T19:26:18.771Z,98204
2017-11-14T19:28:45.517Z,98205
2017-11-14T19:31:12.225Z,98206
2017-11-14T19:33:39.804Z,98215
2017-11-14T19:36:06.540Z,98212
2017-11-14T19:38:33.228Z,98204
2017-11-14T19:41:00.593Z,98206
2017-11-14T19:43:27.324Z,98207
2017-11-14T19:45:54.020Z,98207
2017-11-14T19:48:21.552Z,98209
2017-11-14T19:50:49.047Z,98213
2017-11-14T19:53:16.585Z,98213
2017-11-14T19:55:43.322Z,98211
2017-11-14T19:58:10.045Z,98214
2017-11-14T20:00:36.757Z,98214
2017-11-14T20:03:03.536Z,98222
2017-11-14T20:05:30.265Z,98216
2017-11-14T20:07:57.020Z,98212
2017-11-14T20:10:23.820Z,98209
2017-11-14T20:12:51.324Z,98215
2017-11-14T20:15:18.065Z,98220
2017-11-14T20:17:44.848Z,98222
2017-11-14T20:20:12.044Z,98227
2017-11-14T20:22:39.050Z,98227
2017-11-14T20:25:05.871Z,98236
2017-11-14T20:27:32.644Z,98243
2017-11-14T20:30:00.115Z,98237
2017-11-14T20:32:27.674Z,98241
2017-11-14T20:34:54.390Z,98245
2017-11-14T20:37:21.094Z,98253
2017-11-14T20:39:47.883Z,98251
2017-11-14T20:42:14.713Z,98254
2017-11-14T20:44:41.494Z,98251
2017-11-14T20:47:08.246Z,98255
2017-11-14T20:49:34.957Z,98261
2017-11-14T20:52:01.663Z,98262
2017-11-14T20:54:28.458Z,98261
2017-11-14T20:56:55.195Z,98262
2017-11-14T20:59:22.651Z,98261
2017-11-14T21:01:49.389Z,98264
2017-11-14T21:04:16.241Z,98263
2017-11-14T21:06:43.053Z,98261
2017-11-14T21:09:09.752Z,98263
2017-11-14T21:11:36.476Z,98263
2017-11-14T21:14:03.146Z,98262
2017-11-14T21:16:29.896Z,98261
2017-11-14T21:18:56.609Z,98267
2017-11-14T21:21:23.300Z,98275
2017-11-14T21:23:50.768Z,98278
2017-11-14T21:26:18.267Z,98282
2017-11-14T21:28:45.741Z,98284
2017-11-14T21:31:12.536Z,98282
2017-11-14T21:33:39.262Z,98281
2017-11-14T21:36:07.738Z,98286
2017-11-14T21:38:34.532Z,98283
2017-11-14T21:41:01.245Z,98286
2017-11-14T21:43:28.691Z,98286
2017-11-14T21:45:55.761Z,98286
2017-11-14T21:48:23.560Z,98286
2017-11-14T21:50:50.257Z,98281
2017-11-14T21:53:16.951Z,98285
2017-11-14T21:55:45.720Z,98290
2017-11-14T21:58:12.454Z,98292
2017-11-14T22:00:39.254Z,98289
2017-11-14T22:03:05.979Z,98288
2017-11-14T22:05:32.781Z,98286
2017-11-14T22:08:00.292Z,98286
2017-11-14T22:10:26.993Z,98283
2017-11-14T22:12:54.491Z,98291
2017-11-14T22:15:21.256Z,98288
2017-11-14T22:17:47.905Z,98284
2017-11-14T22:20:14.582Z,98282
2017-11-14T22:22:42.068Z,98274
2017-11-14T22:25:08.755Z,98275
2017-11-14T22:27:35.463Z,98278
2017-11-14T22:30:03.112Z,98285
2017-11-14T22:32:29.764Z,98282
2017-11-14T22:34:57.424Z,98279
2017-11-14T22:37:24.123Z,98280
2017-11-14T22:39:50.799Z,98279
2017-11-14T22:42:18.261Z,98278
2017-11-14T22:44:45.766Z,98280
2017-11-14T22:47:13.416Z,98280
2017-11-14T22:49:40.128Z,98271
2017-11-14T22:52:07.565Z,98264
2017-11-14T22:54:35.236Z,98263
2017-11-14T22:57:01.931Z,98266
2017-11-14T22:59:28.676Z,98265
2017-11-14T23:01:55.989Z,98258
2017-11-14T23:04:23.422Z,98258
2017-11-14T23:06:52.385Z,98258
2017-11-14T23:09:19.185Z,98255
2017-11-14T23:11:45.889Z,98253
2017-11-14T23:14:12.638Z,98257
2017-11-14T23:16:39.329Z,98254
2017-11-14T23:19:07.533Z,98250
2017-11-14T23:21:34.223Z,98253
2017-11-14T23:24:00.949Z,98250
2017-11-14T23:26:27.763Z,98244
2017-11-14T23:28:54.456Z,98239
2017-11-14T23:31:21.154Z,98244
2017-11-14T23:33:47.856Z,98251
2017-11-14T23:36:14.559Z,98254
2017-11-14T23:38:44.724Z,98253
2017-11-14T23:41:11.412Z,98246
2017-11-14T23:43:38.140Z,98247
2017-11-14T23:46:04.826Z,98243
2017-11-14T23:48:32.477Z,98244
2017-11-14T23:50:59.819Z,98247
2017-11-14T23:53:26.539Z,98249
2017-11-14T23:55:53.952Z,98243
2017-11-14T23:58:23.540Z,98242
